Airfield :
LOGIN :

Register | Disclaimer

   EN    FR    IT 

 










Legend :    VFR   Marginal VFR   IFR   Intensive IFR   Very Intensive IFR
Visi :
Ceiling :
>= 8 km
>= 3000ft
5 to 8 km
1000 to 3000 ft
1500m to 5 km
500 to 1000 ft
800 to 1500m
200 to 500 ft
< 800m
< 200 ft
Symbols :   Thunderstorms  Fog  Heavy snow  Heavy precipitations  Wind > 20 kt
SIGMETs :     Misc.  Thunderstorms  Icing  Turbulence  Mountain Waves  Volcanic Ashes






- Airport Elevation : 121 ft
- IATA code : HUY


EGNJ - Humberside

CURRENT METAR :
  • 280450Z AUTO 18013KT 9999 NCD 10/08 Q1015

EXPIRED METARs :
  • 280420Z AUTO 19013KT 9999 NCD 10/08 Q1015
  • 280350Z AUTO 18012KT 9999 NCD 10/08 Q1015
  • 280320Z AUTO 18011KT 9999 NCD 10/08 Q1015
  • 280250Z AUTO 18011KT 9999 NCD 09/08 Q1015
  • 280220Z AUTO 18010KT 9999 NCD 09/08 Q1015
  • 280150Z AUTO 19010KT 9999 NCD 09/07 Q1015

TAF TAF EGNJ
Valid from the 28 at 03:00 until the 28 at 12:00 UTC


280157Z 2803/2812 18009KT 9999 SCT045
ATIS : +44 1652 682 020



MET'MAP, your aeronautical weather chart ! - Copyright ORBIFLY December 2007 - Disclaimer

ORBIFLY MET'MAP TEAM :

Programming & Development : Alexandra Zaïnal
Concept & original design : Baudouin d'Aumeries
Assistance for programming : Marc-Olivier Méhu
Technical & hardware support : Manuel Goepfert

Contact : metmap@orbifly.com




SOURCES & CREDITS :

   NOAA